DIESL EDLV-EHEH
Flight info
| Callsign | DIESL |
|---|---|
| Flight time | 0h 21m |
| Altitude | 2500 |
| Route | ROMIN ECHO VICTOR MIKE |
| Aircraft | DA42/L-SBDFGRY/S |
Departure
| Time | 2026-04-26 12:23 |
|---|---|
| Airport | Weeze (Niederrhein) Airport (EDLV) |
Arrival
| Time | 2026-04-26 12:44 |
|---|---|
| Airport | Eindhoven Airport (EHEH) |
| Time | Latitude | Longitude | Altitude | Speed | Heading |
|---|---|---|---|---|---|
| 2026-04-26 12:07 | 51.59999 | 6.14671 | 104 ft | 0 kts | 92° |
| 2026-04-26 12:13 | 51.60003 | 6.14675 | 104 ft | 3 kts | 353° |
| 2026-04-26 12:13 | 51.60020 | 6.14590 | 103 ft | 12 kts | 353° |
| 2026-04-26 12:13 | 51.60046 | 6.14525 | 104 ft | 11 kts | 271° |
| 2026-04-26 12:14 | 51.60052 | 6.14356 | 106 ft | 19 kts | 273° |
| 2026-04-26 12:14 | 51.60058 | 6.14109 | 106 ft | 24 kts | 275° |
| 2026-04-26 12:14 | 51.60063 | 6.13870 | 108 ft | 19 kts | 273° |
| 2026-04-26 12:14 | 51.60066 | 6.13666 | 107 ft | 18 kts | 272° |
| 2026-04-26 12:15 | 51.60071 | 6.13455 | 106 ft | 19 kts | 272° |
| 2026-04-26 12:15 | 51.60077 | 6.13234 | 105 ft | 20 kts | 272° |
| 2026-04-26 12:15 | 51.60081 | 6.13012 | 103 ft | 17 kts | 275° |
| 2026-04-26 12:15 | 51.60151 | 6.12951 | 103 ft | 12 kts | 2° |
| 2026-04-26 12:16 | 51.60182 | 6.12954 | 103 ft | 0 kts | 1° |
| 2026-04-26 12:21 | 51.60210 | 6.12954 | 104 ft | 9 kts | 1° |
| 2026-04-26 12:21 | 51.60270 | 6.12974 | 106 ft | 8 kts | 58° |
| 2026-04-26 12:22 | 51.60274 | 6.13003 | 106 ft | 0 kts | 91° |
| 2026-04-26 12:22 | 51.60272 | 6.13142 | 106 ft | 43 kts | 93° |
| 2026-04-26 12:22 | 51.60258 | 6.13906 | 172 ft | 83 kts | 91° |
| 2026-04-26 12:22 | 51.60215 | 6.14846 | 478 ft | 86 kts | 89° |
| 2026-04-26 12:23 | 51.60175 | 6.15859 | 903 ft | 90 kts | 90° |
| 2026-04-26 12:23 | 51.60173 | 6.16844 | 1407 ft | 87 kts | 87° |
| 2026-04-26 12:23 | 51.60030 | 6.17811 | 1731 ft | 94 kts | 127° |
| 2026-04-26 12:23 | 51.59436 | 6.18351 | 2075 ft | 106 kts | 154° |
| 2026-04-26 12:24 | 51.58650 | 6.18898 | 2032 ft | 138 kts | 154° |
| 2026-04-26 12:24 | 51.58029 | 6.19337 | 2021 ft | 149 kts | 153° |
| 2026-04-26 12:24 | 51.57053 | 6.20081 | 2010 ft | 163 kts | 152° |
| 2026-04-26 12:25 | 51.54896 | 6.21616 | 1987 ft | 172 kts | 169° |
| 2026-04-26 12:25 | 51.53718 | 6.21446 | 2006 ft | 174 kts | 192° |
| 2026-04-26 12:25 | 51.52531 | 6.21004 | 2001 ft | 170 kts | 192° |
| 2026-04-26 12:25 | 51.51366 | 6.20563 | 1995 ft | 172 kts | 192° |
| 2026-04-26 12:26 | 51.50207 | 6.20130 | 1984 ft | 171 kts | 193° |
| 2026-04-26 12:26 | 51.49045 | 6.19684 | 1995 ft | 168 kts | 193° |
| 2026-04-26 12:26 | 51.47902 | 6.19236 | 2003 ft | 174 kts | 195° |
| 2026-04-26 12:26 | 51.46705 | 6.18772 | 1998 ft | 171 kts | 192° |
| 2026-04-26 12:27 | 51.45561 | 6.18345 | 1995 ft | 168 kts | 193° |
| 2026-04-26 12:27 | 51.44394 | 6.17939 | 1995 ft | 178 kts | 190° |
| 2026-04-26 12:27 | 51.43176 | 6.17485 | 2010 ft | 174 kts | 194° |
| 2026-04-26 12:27 | 51.42023 | 6.16998 | 1990 ft | 172 kts | 194° |
| 2026-04-26 12:28 | 51.40873 | 6.16402 | 1985 ft | 171 kts | 211° |
| 2026-04-26 12:28 | 51.40099 | 6.14964 | 1996 ft | 175 kts | 242° |
| 2026-04-26 12:28 | 51.39710 | 6.13147 | 2011 ft | 171 kts | 259° |
| 2026-04-26 12:28 | 51.39493 | 6.11264 | 1989 ft | 169 kts | 262° |
| 2026-04-26 12:29 | 51.39299 | 6.09429 | 1989 ft | 165 kts | 262° |
| 2026-04-26 12:29 | 51.39117 | 6.07564 | 1990 ft | 171 kts | 263° |
| 2026-04-26 12:29 | 51.38724 | 6.03814 | 1982 ft | 170 kts | 262° |
| 2026-04-26 12:30 | 51.38517 | 6.01946 | 1987 ft | 170 kts | 261° |
| 2026-04-26 12:30 | 51.38304 | 6.00060 | 1957 ft | 171 kts | 262° |
| 2026-04-26 12:30 | 51.38161 | 5.98153 | 1898 ft | 176 kts | 268° |
| 2026-04-26 12:31 | 51.38018 | 5.94248 | 1655 ft | 174 kts | 270° |
| 2026-04-26 12:31 | 51.38072 | 5.92305 | 1526 ft | 176 kts | 278° |
| 2026-04-26 12:31 | 51.38250 | 5.90386 | 1513 ft | 173 kts | 285° |
| 2026-04-26 12:31 | 51.38563 | 5.88491 | 1477 ft | 172 kts | 288° |
| 2026-04-26 12:32 | 51.38884 | 5.86686 | 1490 ft | 165 kts | 289° |
| 2026-04-26 12:32 | 51.39223 | 5.84880 | 1497 ft | 163 kts | 292° |
| 2026-04-26 12:32 | 51.40073 | 5.81467 | 1489 ft | 163 kts | 298° |
| 2026-04-26 12:33 | 51.40549 | 5.79841 | 1489 ft | 160 kts | 296° |
| 2026-04-26 12:33 | 51.40973 | 5.78173 | 1490 ft | 164 kts | 291° |
| 2026-04-26 12:33 | 51.41326 | 5.76408 | 1507 ft | 166 kts | 290° |
| 2026-04-26 12:33 | 51.41608 | 5.74535 | 1488 ft | 174 kts | 284° |
| 2026-04-26 12:34 | 51.41824 | 5.72634 | 1496 ft | 169 kts | 278° |
| 2026-04-26 12:34 | 51.41829 | 5.70740 | 1482 ft | 172 kts | 268° |
| 2026-04-26 12:34 | 51.41767 | 5.68837 | 1494 ft | 169 kts | 267° |
| 2026-04-26 12:34 | 51.41682 | 5.67561 | 1486 ft | 166 kts | 263° |
| 2026-04-26 12:35 | 51.41510 | 5.65707 | 1487 ft | 166 kts | 263° |
| 2026-04-26 12:35 | 51.41324 | 5.63901 | 1496 ft | 164 kts | 262° |
| 2026-04-26 12:35 | 51.41136 | 5.62067 | 1486 ft | 169 kts | 262° |
| 2026-04-26 12:35 | 51.40954 | 5.60202 | 1490 ft | 171 kts | 262° |
| 2026-04-26 12:36 | 51.40770 | 5.58349 | 1506 ft | 167 kts | 263° |
| 2026-04-26 12:36 | 51.40604 | 5.56496 | 1493 ft | 163 kts | 266° |
| 2026-04-26 12:36 | 51.40527 | 5.54671 | 1491 ft | 160 kts | 268° |
| 2026-04-26 12:36 | 51.40473 | 5.52880 | 1506 ft | 160 kts | 269° |
| 2026-04-26 12:37 | 51.40411 | 5.51067 | 1492 ft | 159 kts | 268° |
| 2026-04-26 12:37 | 51.40392 | 5.49307 | 1494 ft | 156 kts | 275° |
| 2026-04-26 12:37 | 51.40453 | 5.47578 | 1500 ft | 151 kts | 276° |
| 2026-04-26 12:37 | 51.40512 | 5.45880 | 1484 ft | 150 kts | 277° |
| 2026-04-26 12:38 | 51.40867 | 5.44283 | 1295 ft | 156 kts | 306° |
| 2026-04-26 12:38 | 51.41676 | 5.43145 | 1115 ft | 151 kts | 335° |
| 2026-04-26 12:38 | 51.42687 | 5.42691 | 925 ft | 149 kts | 349° |
| 2026-04-26 12:38 | 51.43701 | 5.42283 | 864 ft | 140 kts | 359° |
| 2026-04-26 12:39 | 51.44480 | 5.42983 | 868 ft | 137 kts | 66° |
| 2026-04-26 12:39 | 51.44257 | 5.44350 | 923 ft | 140 kts | 142° |
| 2026-04-26 12:39 | 51.43322 | 5.44340 | 904 ft | 145 kts | 214° |
| 2026-04-26 12:39 | 51.42921 | 5.42949 | 896 ft | 143 kts | 278° |
| 2026-04-26 12:40 | 51.43502 | 5.41778 | 951 ft | 133 kts | 349° |
| 2026-04-26 12:40 | 51.44306 | 5.42361 | 901 ft | 135 kts | 63° |
| 2026-04-26 12:40 | 51.44181 | 5.43763 | 947 ft | 139 kts | 130° |
| 2026-04-26 12:40 | 51.43258 | 5.44088 | 969 ft | 145 kts | 204° |
| 2026-04-26 12:41 | 51.42728 | 5.42849 | 1029 ft | 139 kts | 271° |
| 2026-04-26 12:41 | 51.43122 | 5.41436 | 895 ft | 141 kts | 305° |
| 2026-04-26 12:41 | 51.43333 | 5.40457 | 846 ft | 134 kts | 275° |
| 2026-04-26 12:41 | 51.43193 | 5.39070 | 848 ft | 118 kts | 250° |
| 2026-04-26 12:42 | 51.42783 | 5.37948 | 725 ft | 118 kts | 236° |
| 2026-04-26 12:42 | 51.42277 | 5.36970 | 664 ft | 110 kts | 226° |
| 2026-04-26 12:42 | 51.41796 | 5.36048 | 663 ft | 103 kts | 246° |
| 2026-04-26 12:42 | 51.41915 | 5.34985 | 598 ft | 93 kts | 315° |
| 2026-04-26 12:43 | 51.42505 | 5.34695 | 480 ft | 93 kts | 18° |
| 2026-04-26 12:43 | 51.43052 | 5.35215 | 322 ft | 93 kts | 42° |
| 2026-04-26 12:43 | 51.43574 | 5.35839 | 235 ft | 95 kts | 40° |
| 2026-04-26 12:43 | 51.44115 | 5.36444 | 132 ft | 95 kts | 36° |
| 2026-04-26 12:44 | 51.44652 | 5.37041 | 73 ft | 87 kts | 37° |
| 2026-04-26 12:44 | 51.45101 | 5.37543 | 69 ft | 63 kts | 36° |
| 2026-04-26 12:44 | 51.45382 | 5.37863 | 69 ft | 39 kts | 35° |
| 2026-04-26 12:44 | 51.45568 | 5.38073 | 72 ft | 29 kts | 35° |
| 2026-04-26 12:45 | 51.45730 | 5.38255 | 69 ft | 25 kts | 34° |
| 2026-04-26 12:45 | 51.45860 | 5.38402 | 69 ft | 21 kts | 36° |
| 2026-04-26 12:45 | 51.45889 | 5.38559 | 68 ft | 15 kts | 122° |
| 2026-04-26 12:45 | 51.45824 | 5.38705 | 64 ft | 11 kts | 124° |
| 2026-04-26 12:46 | 51.45816 | 5.38723 | 69 ft | 0 kts | 121° |
| 2026-04-26 12:46 | 51.45811 | 5.38735 | 69 ft | 4 kts | 125° |
| 2026-04-26 12:46 | 51.45796 | 5.38769 | 64 ft | 0 kts | 126° |
| 2026-04-26 12:47 | 51.45782 | 5.38788 | 69 ft | 9 kts | 152° |
| 2026-04-26 12:47 | 51.45678 | 5.38708 | 69 ft | 22 kts | 217° |
| 2026-04-26 12:48 | 51.45549 | 5.38562 | 67 ft | 17 kts | 214° |
| 2026-04-26 12:48 | 51.45482 | 5.38481 | 69 ft | 5 kts | 160° |
| 2026-04-26 12:48 | 51.45494 | 5.38497 | 69 ft | 0 kts | 28° |